This is the latest recevied weather packets stored in our database for station/object TA1FM. If no packets are shown the sender has not sent any weather packets the latest 10 day(s).
| Time | Temp. | Humidity | Pressure | Rain* | Wind** | Luminosity | Snow |
|---|---|---|---|---|---|---|---|
| 1777317898 | 5° C | 34% | 914.3 hPa | - | - | - | - |
| 1777316998 | 5° C | 33% | 914.4 hPa | - | - | - | - |
| 1777316098 | 5.56° C | 34% | 914.5 hPa | - | - | - | - |
| 1777314297 | 5.56° C | 36% | 914.4 hPa | - | - | - | - |
| 1777313397 | 5.56° C | 38% | 914.1 hPa | - | - | - | - |
| 1777311597 | 6.11° C | 44% | 913.7 hPa | - | - | - | - |
| 1777310697 | 6.11° C | 47% | 914 hPa | - | - | - | - |
| 1777309856 | 6.11° C | 47% | 913.8 hPa | - | - | - | - |
| 1777309797 | 6.11° C | 47% | 913.8 hPa | - | - | - | - |
| 1777309178 | 6.67° C | 48% | 914 hPa | - | - | - | - |
| 1777308896 | 6.67° C | 48% | 914 hPa | - | - | - | - |
| 1777307996 | 6.67° C | 51% | 914 hPa | - | - | - | - |
| 1777307522 | 5.56° C | 56% | 911.5 hPa | - | - | - | - |
| 1777307096 | 5.56° C | 56% | 911.5 hPa | - | - | - | - |
| 1777306196 | 7.22° C | 59% | 914.1 hPa | - | - | - | - |
| 1777305296 | 7.78° C | 61% | 914 hPa | - | - | - | - |
| 1777304396 | 7.78° C | 60% | 914.1 hPa | - | - | - | - |
| 1777303497 | 8.33° C | 59% | 914.2 hPa | - | - | - | - |
| 1777302595 | 8.89° C | 58% | 914.3 hPa | - | - | - | - |
| 1777301697 | 8.89° C | 57% | 914.7 hPa | - | - | - | - |
| 1777300795 | 9.44° C | 54% | 914.9 hPa | - | - | - | - |
| 1777299895 | 10° C | 54% | 914.9 hPa | - | - | - | - |
| 1777298999 | 10° C | 52% | 915.1 hPa | - | - | - | - |
| 1777298097 | 10.56° C | 52% | 915.1 hPa | - | - | - | - |
| 1777297194 | 10.56° C | 51% | 915.2 hPa | - | - | - | - |
* Rain since midnight (hover to see other rain measurements)
** Current wind speed in m/s (hover to see current wind gust speed)